sensor_id;sensor_type;location;lat;lon;timestamp;P1;durP1;ratioP1;P2;durP2;ratioP2
19810;SDS011;10065;49.632;8.346;2024-01-10T07:16:14;38.20;;;15.13;;
19810;SDS011;10065;49.632;8.346;2024-01-10T07:19:04;47.03;;;17.57;;
19810;SDS011;10065;49.632;8.346;2024-01-10T07:22:00;38.00;;;14.43;;
19810;SDS011;10065;49.632;8.346;2024-01-10T07:24:44;35.63;;;15.27;;
19810;SDS011;10065;49.632;8.346;2024-01-10T07:27:17;36.47;;;14.60;;
19810;SDS011;10065;49.632;8.346;2024-01-10T07:29:45;32.10;;;13.97;;
19810;SDS011;10065;49.632;8.346;2024-01-10T07:32:15;37.93;;;14.77;;
19810;SDS011;10065;49.632;8.346;2024-01-10T07:34:42;37.67;;;14.23;;
19810;SDS011;10065;49.632;8.346;2024-01-10T07:37:11;34.43;;;14.93;;
19810;SDS011;10065;49.632;8.346;2024-01-10T07:39:42;34.93;;;13.73;;
19810;SDS011;10065;49.632;8.346;2024-01-10T07:42:10;35.57;;;14.67;;
19810;SDS011;10065;49.632;8.346;2024-01-10T07:44:38;35.90;;;14.83;;
19810;SDS011;10065;49.632;8.346;2024-01-10T07:47:06;35.30;;;14.83;;
19810;SDS011;10065;49.632;8.346;2024-01-10T07:49:35;35.70;;;13.80;;
19810;SDS011;10065;49.632;8.346;2024-01-10T07:52:03;43.10;;;16.33;;
19810;SDS011;10065;49.632;8.346;2024-01-10T07:54:31;36.10;;;14.33;;
19810;SDS011;10065;49.632;8.346;2024-01-10T07:56:59;38.10;;;14.63;;
19810;SDS011;10065;49.632;8.346;2024-01-10T07:59:27;40.53;;;15.97;;
19810;SDS011;10065;49.632;8.346;2024-01-10T08:01:56;41.43;;;15.00;;
19810;SDS011;10065;49.632;8.346;2024-01-10T08:04:25;35.93;;;15.10;;
19810;SDS011;10065;49.632;8.346;2024-01-10T08:06:54;37.70;;;14.00;;
19810;SDS011;10065;49.632;8.346;2024-01-10T08:09:23;41.60;;;15.20;;
19810;SDS011;10065;49.632;8.346;2024-01-10T08:11:51;35.63;;;14.87;;
19810;SDS011;10065;49.632;8.346;2024-01-10T08:14:18;38.27;;;14.70;;
19810;SDS011;10065;49.632;8.346;2024-01-10T08:16:46;37.37;;;14.37;;
19810;SDS011;10065;49.632;8.346;2024-01-10T08:19:14;35.50;;;15.27;;
19810;SDS011;10065;49.632;8.346;2024-01-10T08:21:42;38.50;;;14.50;;
19810;SDS011;10065;49.632;8.346;2024-01-10T08:24:11;41.77;;;15.00;;
19810;SDS011;10065;49.632;8.346;2024-01-10T08:26:39;39.23;;;15.80;;
19810;SDS011;10065;49.632;8.346;2024-01-10T08:29:07;43.07;;;14.70;;
19810;SDS011;10065;49.632;8.346;2024-01-10T08:31:35;35.23;;;14.60;;
19810;SDS011;10065;49.632;8.346;2024-01-10T08:34:03;40.97;;;14.93;;
19810;SDS011;10065;49.632;8.346;2024-01-10T08:36:31;40.17;;;14.70;;
19810;SDS011;10065;49.632;8.346;2024-01-10T08:38:58;37.80;;;16.10;;
19810;SDS011;10065;49.632;8.346;2024-01-10T08:41:28;35.97;;;14.47;;
19810;SDS011;10065;49.632;8.346;2024-01-10T08:43:56;37.83;;;15.50;;
19810;SDS011;10065;49.632;8.346;2024-01-10T08:46:24;39.00;;;14.13;;
19810;SDS011;10065;49.632;8.346;2024-01-10T08:48:52;37.83;;;15.03;;
19810;SDS011;10065;49.632;8.346;2024-01-10T08:51:19;36.83;;;15.03;;
19810;SDS011;10065;49.632;8.346;2024-01-10T08:53:47;39.93;;;13.60;;
19810;SDS011;10065;49.632;8.346;2024-01-10T08:56:15;36.70;;;14.67;;
19810;SDS011;10065;49.632;8.346;2024-01-10T08:58:44;37.03;;;15.60;;
19810;SDS011;10065;49.632;8.346;2024-01-10T09:01:13;36.97;;;14.70;;
19810;SDS011;10065;49.632;8.346;2024-01-10T09:03:41;35.17;;;14.33;;
19810;SDS011;10065;49.632;8.346;2024-01-10T09:06:08;34.10;;;13.10;;
19810;SDS011;10065;49.632;8.346;2024-01-10T09:08:38;35.27;;;14.07;;
19810;SDS011;10065;49.632;8.346;2024-01-10T09:11:06;33.57;;;14.27;;
19810;SDS011;10065;49.632;8.346;2024-01-10T09:13:34;33.23;;;14.20;;
19810;SDS011;10065;49.632;8.346;2024-01-10T09:16:06;42.63;;;14.97;;
19810;SDS011;10065;49.632;8.346;2024-01-10T09:18:34;33.43;;;14.00;;
19810;SDS011;10065;49.632;8.346;2024-01-10T09:21:03;33.50;;;13.97;;
19810;SDS011;10065;49.632;8.346;2024-01-10T09:23:31;33.07;;;14.30;;
19810;SDS011;10065;49.632;8.346;2024-01-10T09:25:59;32.53;;;13.97;;
19810;SDS011;10065;49.632;8.346;2024-01-10T09:28:27;42.63;;;14.73;;
19810;SDS011;10065;49.632;8.346;2024-01-10T09:30:55;36.77;;;13.70;;
19810;SDS011;10065;49.632;8.346;2024-01-10T09:33:24;30.33;;;13.57;;
19810;SDS011;10065;49.632;8.346;2024-01-10T09:35:52;42.57;;;13.13;;
19810;SDS011;10065;49.632;8.346;2024-01-10T09:38:20;47.10;;;16.23;;
19810;SDS011;10065;49.632;8.346;2024-01-10T09:40:48;38.87;;;13.20;;
19810;SDS011;10065;49.632;8.346;2024-01-10T09:43:16;33.20;;;14.13;;
19810;SDS011;10065;49.632;8.346;2024-01-10T09:45:46;32.23;;;14.23;;
19810;SDS011;10065;49.632;8.346;2024-01-10T09:48:15;33.53;;;12.80;;
19810;SDS011;10065;49.632;8.346;2024-01-10T09:50:45;30.70;;;13.17;;
19810;SDS011;10065;49.632;8.346;2024-01-10T09:53:18;40.73;;;13.00;;
19810;SDS011;10065;49.632;8.346;2024-01-10T09:55:50;37.40;;;14.53;;
19810;SDS011;10065;49.632;8.346;2024-01-10T09:58:18;36.53;;;14.90;;
19810;SDS011;10065;49.632;8.346;2024-01-10T10:00:46;31.37;;;14.17;;
19810;SDS011;10065;49.632;8.346;2024-01-10T10:03:14;33.30;;;13.87;;
19810;SDS011;10065;49.632;8.346;2024-01-10T10:05:45;35.23;;;14.17;;
19810;SDS011;10065;49.632;8.346;2024-01-10T10:08:14;31.93;;;13.40;;
19810;SDS011;10065;49.632;8.346;2024-01-10T10:10:48;31.87;;;14.07;;
19810;SDS011;10065;49.632;8.346;2024-01-10T10:13:26;32.13;;;13.37;;
19810;SDS011;10065;49.632;8.346;2024-01-10T10:15:57;31.57;;;14.67;;
19810;SDS011;10065;49.632;8.346;2024-01-10T10:18:26;33.17;;;15.07;;
19810;SDS011;10065;49.632;8.346;2024-01-10T10:23:40;31.40;;;12.83;;
19810;SDS011;10065;49.632;8.346;2024-01-10T10:26:10;28.17;;;14.73;;
19810;SDS011;10065;49.632;8.346;2024-01-10T10:28:40;28.77;;;14.03;;
19810;SDS011;10065;49.632;8.346;2024-01-10T10:31:08;30.67;;;15.50;;
19810;SDS011;10065;49.632;8.346;2024-01-10T10:33:38;27.30;;;14.63;;
19810;SDS011;10065;49.632;8.346;2024-01-10T10:36:07;28.83;;;15.43;;
19810;SDS011;10065;49.632;8.346;2024-01-10T10:38:36;34.37;;;16.07;;
19810;SDS011;10065;49.632;8.346;2024-01-10T10:41:04;30.27;;;15.70;;
19810;SDS011;10065;49.632;8.346;2024-01-10T10:43:37;32.83;;;16.23;;
19810;SDS011;10065;49.632;8.346;2024-01-10T10:46:07;35.90;;;16.93;;
19810;SDS011;10065;49.632;8.346;2024-01-10T10:48:36;30.50;;;15.40;;
19810;SDS011;10065;49.632;8.346;2024-01-10T10:51:05;31.40;;;16.47;;
19810;SDS011;10065;49.632;8.346;2024-01-10T10:53:34;32.23;;;16.90;;
19810;SDS011;10065;49.632;8.346;2024-01-10T10:56:04;32.23;;;17.83;;
19810;SDS011;10065;49.632;8.346;2024-01-10T10:58:34;31.20;;;16.00;;
19810;SDS011;10065;49.632;8.346;2024-01-10T11:01:04;27.60;;;16.50;;
19810;SDS011;10065;49.632;8.346;2024-01-10T11:03:33;31.13;;;17.87;;
19810;SDS011;10065;49.632;8.346;2024-01-10T11:06:04;34.17;;;20.47;;
19810;SDS011;10065;49.632;8.346;2024-01-10T11:08:34;29.53;;;18.80;;
19810;SDS011;10065;49.632;8.346;2024-01-10T11:11:05;26.93;;;17.37;;
19810;SDS011;10065;49.632;8.346;2024-01-10T11:16:44;28.43;;;16.40;;
19810;SDS011;10065;49.632;8.346;2024-01-10T11:19:37;26.33;;;15.93;;
19810;SDS011;10065;49.632;8.346;2024-01-10T11:22:27;25.07;;;16.07;;
19810;SDS011;10065;49.632;8.346;2024-01-10T11:25:08;28.67;;;15.70;;
19810;SDS011;10065;49.632;8.346;2024-01-10T11:27:37;27.47;;;15.97;;
19810;SDS011;10065;49.632;8.346;2024-01-10T11:30:06;27.27;;;16.07;;
19810;SDS011;10065;49.632;8.346;2024-01-10T11:32:35;23.37;;;14.93;;
19810;SDS011;10065;49.632;8.346;2024-01-10T11:35:04;26.73;;;14.87;;
19810;SDS011;10065;49.632;8.346;2024-01-10T11:37:38;25.07;;;14.00;;
19810;SDS011;10065;49.632;8.346;2024-01-10T11:40:07;22.70;;;14.13;;
19810;SDS011;10065;49.632;8.346;2024-01-10T11:42:44;23.23;;;13.50;;
19810;SDS011;10065;49.632;8.346;2024-01-10T11:45:16;25.93;;;14.33;;
19810;SDS011;10065;49.632;8.346;2024-01-10T11:48:04;26.63;;;14.67;;
19810;SDS011;10065;49.632;8.346;2024-01-10T11:50:34;24.30;;;13.63;;
19810;SDS011;10065;49.632;8.346;2024-01-10T11:53:02;22.20;;;12.60;;
19810;SDS011;10065;49.632;8.346;2024-01-10T11:55:50;25.50;;;13.33;;
19810;SDS011;10065;49.632;8.346;2024-01-10T11:58:20;22.33;;;12.93;;
19810;SDS011;10065;49.632;8.346;2024-01-10T12:00:50;23.97;;;13.40;;
19810;SDS011;10065;49.632;8.346;2024-01-10T12:03:19;25.30;;;12.33;;
19810;SDS011;10065;49.632;8.346;2024-01-10T12:05:52;23.97;;;12.53;;
19810;SDS011;10065;49.632;8.346;2024-01-10T12:08:22;25.40;;;12.33;;
19810;SDS011;10065;49.632;8.346;2024-01-10T12:10:50;30.33;;;12.70;;
19810;SDS011;10065;49.632;8.346;2024-01-10T12:13:18;28.33;;;12.10;;
19810;SDS011;10065;49.632;8.346;2024-01-10T12:15:47;31.27;;;11.93;;
19810;SDS011;10065;49.632;8.346;2024-01-10T12:18:15;23.47;;;10.67;;
19810;SDS011;10065;49.632;8.346;2024-01-10T12:20:44;25.00;;;11.80;;
19810;SDS011;10065;49.632;8.346;2024-01-10T12:23:11;22.90;;;10.87;;
19810;SDS011;10065;49.632;8.346;2024-01-10T12:25:39;28.77;;;12.60;;
19810;SDS011;10065;49.632;8.346;2024-01-10T12:28:07;25.73;;;11.53;;
19810;SDS011;10065;49.632;8.346;2024-01-10T12:30:35;28.57;;;12.03;;
19810;SDS011;10065;49.632;8.346;2024-01-10T12:33:05;28.43;;;11.80;;
19810;SDS011;10065;49.632;8.346;2024-01-10T12:35:32;23.43;;;11.57;;
19810;SDS011;10065;49.632;8.346;2024-01-10T12:38:00;26.77;;;10.90;;
19810;SDS011;10065;49.632;8.346;2024-01-10T12:40:29;29.83;;;12.13;;
19810;SDS011;10065;49.632;8.346;2024-01-10T12:43:02;24.70;;;11.90;;
19810;SDS011;10065;49.632;8.346;2024-01-10T12:45:30;29.63;;;11.53;;
19810;SDS011;10065;49.632;8.346;2024-01-10T12:47:58;28.50;;;11.50;;
19810;SDS011;10065;49.632;8.346;2024-01-10T12:50:28;31.37;;;12.27;;
19810;SDS011;10065;49.632;8.346;2024-01-10T12:52:56;28.57;;;11.40;;
19810;SDS011;10065;49.632;8.346;2024-01-10T12:55:25;25.67;;;11.97;;
19810;SDS011;10065;49.632;8.346;2024-01-10T12:57:54;28.93;;;12.07;;
19810;SDS011;10065;49.632;8.346;2024-01-10T13:00:25;30.30;;;12.57;;
19810;SDS011;10065;49.632;8.346;2024-01-10T13:02:53;27.50;;;11.63;;
19810;SDS011;10065;49.632;8.346;2024-01-10T13:05:21;31.87;;;12.23;;
19810;SDS011;10065;49.632;8.346;2024-01-10T13:07:50;25.33;;;11.60;;
19810;SDS011;10065;49.632;8.346;2024-01-10T13:10:18;25.67;;;10.93;;
19810;SDS011;10065;49.632;8.346;2024-01-10T13:12:46;28.77;;;12.10;;
19810;SDS011;10065;49.632;8.346;2024-01-10T13:15:14;25.67;;;10.93;;
19810;SDS011;10065;49.632;8.346;2024-01-10T13:17:42;32.53;;;12.17;;
19810;SDS011;10065;49.632;8.346;2024-01-10T13:20:10;23.93;;;10.70;;
19810;SDS011;10065;49.632;8.346;2024-01-10T13:22:38;27.00;;;12.57;;
19810;SDS011;10065;49.632;8.346;2024-01-10T13:25:08;27.27;;;11.43;;
19810;SDS011;10065;49.632;8.346;2024-01-10T13:27:35;25.83;;;11.03;;
19810;SDS011;10065;49.632;8.346;2024-01-10T13:30:04;27.30;;;11.30;;
19810;SDS011;10065;49.632;8.346;2024-01-10T13:32:33;25.03;;;11.57;;
19810;SDS011;10065;49.632;8.346;2024-01-10T13:35:01;27.47;;;11.33;;
19810;SDS011;10065;49.632;8.346;2024-01-10T13:37:29;24.80;;;10.80;;
19810;SDS011;10065;49.632;8.346;2024-01-10T13:39:58;26.73;;;12.30;;
19810;SDS011;10065;49.632;8.346;2024-01-10T13:42:27;28.73;;;13.03;;
19810;SDS011;10065;49.632;8.346;2024-01-10T13:44:55;23.67;;;11.40;;
19810;SDS011;10065;49.632;8.346;2024-01-10T13:47:23;27.57;;;11.93;;
19810;SDS011;10065;49.632;8.346;2024-01-10T13:49:51;28.63;;;11.83;;
19810;SDS011;10065;49.632;8.346;2024-01-10T13:52:19;26.57;;;11.40;;
19810;SDS011;10065;49.632;8.346;2024-01-10T13:54:47;29.10;;;12.77;;
19810;SDS011;10065;49.632;8.346;2024-01-10T13:57:14;23.30;;;11.43;;
19810;SDS011;10065;49.632;8.346;2024-01-10T13:59:44;28.70;;;10.80;;
19810;SDS011;10065;49.632;8.346;2024-01-10T14:02:13;23.93;;;12.10;;
19810;SDS011;10065;49.632;8.346;2024-01-10T14:04:42;25.30;;;11.77;;
19810;SDS011;10065;49.632;8.346;2024-01-10T14:07:11;30.20;;;12.97;;
19810;SDS011;10065;49.632;8.346;2024-01-10T14:09:39;28.83;;;12.00;;
19810;SDS011;10065;49.632;8.346;2024-01-10T14:12:06;24.47;;;10.93;;
19810;SDS011;10065;49.632;8.346;2024-01-10T14:14:34;29.97;;;12.80;;
19810;SDS011;10065;49.632;8.346;2024-01-10T14:17:03;27.40;;;12.33;;
19810;SDS011;10065;49.632;8.346;2024-01-10T14:19:31;28.07;;;12.47;;
19810;SDS011;10065;49.632;8.346;2024-01-10T14:21:59;30.70;;;13.17;;
19810;SDS011;10065;49.632;8.346;2024-01-10T14:24:39;30.47;;;12.73;;
19810;SDS011;10065;49.632;8.346;2024-01-10T14:27:07;28.60;;;12.37;;
19810;SDS011;10065;49.632;8.346;2024-01-10T14:29:36;30.47;;;12.10;;
19810;SDS011;10065;49.632;8.346;2024-01-10T14:32:06;28.60;;;12.13;;
19810;SDS011;10065;49.632;8.346;2024-01-10T14:34:43;31.27;;;12.93;;
19810;SDS011;10065;49.632;8.346;2024-01-10T14:37:13;30.87;;;13.33;;
19810;SDS011;10065;49.632;8.346;2024-01-10T14:39:43;27.87;;;12.30;;
19810;SDS011;10065;49.632;8.346;2024-01-10T14:42:11;26.33;;;12.30;;
19810;SDS011;10065;49.632;8.346;2024-01-10T14:44:40;29.63;;;12.57;;
19810;SDS011;10065;49.632;8.346;2024-01-10T14:47:09;28.43;;;12.60;;
19810;SDS011;10065;49.632;8.346;2024-01-10T14:49:38;32.40;;;12.73;;
19810;SDS011;10065;49.632;8.346;2024-01-10T14:52:06;27.73;;;12.57;;
19810;SDS011;10065;49.632;8.346;2024-01-10T14:54:34;26.73;;;12.60;;
19810;SDS011;10065;49.632;8.346;2024-01-10T14:57:02;36.13;;;12.47;;
19810;SDS011;10065;49.632;8.346;2024-01-10T14:59:30;30.20;;;13.10;;
19810;SDS011;10065;49.632;8.346;2024-01-10T15:02:14;30.17;;;13.77;;
19810;SDS011;10065;49.632;8.346;2024-01-10T15:04:42;32.40;;;13.37;;
19810;SDS011;10065;49.632;8.346;2024-01-10T15:07:10;33.23;;;13.57;;
19810;SDS011;10065;49.632;8.346;2024-01-10T15:09:39;24.67;;;12.23;;
19810;SDS011;10065;49.632;8.346;2024-01-10T15:12:10;26.07;;;10.83;;
19810;SDS011;10065;49.632;8.346;2024-01-10T15:14:39;29.73;;;13.43;;
19810;SDS011;10065;49.632;8.346;2024-01-10T15:17:08;22.73;;;11.90;;
19810;SDS011;10065;49.632;8.346;2024-01-10T15:19:39;31.73;;;13.57;;
19810;SDS011;10065;49.632;8.346;2024-01-10T15:22:07;28.13;;;12.50;;
19810;SDS011;10065;49.632;8.346;2024-01-10T15:24:35;32.23;;;12.80;;
19810;SDS011;10065;49.632;8.346;2024-01-10T15:27:04;28.93;;;12.67;;
19810;SDS011;10065;49.632;8.346;2024-01-10T15:29:36;32.50;;;13.80;;
19810;SDS011;10065;49.632;8.346;2024-01-10T15:32:05;35.67;;;12.97;;
19810;SDS011;10065;49.632;8.346;2024-01-10T15:34:34;29.73;;;12.80;;
19810;SDS011;10065;49.632;8.346;2024-01-10T15:37:03;30.07;;;11.17;;
19810;SDS011;10065;49.632;8.346;2024-01-10T15:39:31;26.90;;;12.30;;
19810;SDS011;10065;49.632;8.346;2024-01-10T15:41:59;27.63;;;11.17;;
19810;SDS011;10065;49.632;8.346;2024-01-10T15:44:26;25.93;;;12.80;;
19810;SDS011;10065;49.632;8.346;2024-01-10T15:46:56;26.80;;;11.67;;
19810;SDS011;10065;49.632;8.346;2024-01-10T15:49:24;29.30;;;12.50;;
19810;SDS011;10065;49.632;8.346;2024-01-10T15:51:52;27.80;;;12.07;;
19810;SDS011;10065;49.632;8.346;2024-01-10T15:54:22;30.30;;;12.70;;
19810;SDS011;10065;49.632;8.346;2024-01-10T15:56:50;29.77;;;11.93;;
19810;SDS011;10065;49.632;8.346;2024-01-10T15:59:18;26.13;;;11.53;;
19810;SDS011;10065;49.632;8.346;2024-01-10T16:01:46;30.57;;;13.20;;
19810;SDS011;10065;49.632;8.346;2024-01-10T16:04:14;29.40;;;12.63;;
19810;SDS011;10065;49.632;8.346;2024-01-10T16:06:41;30.83;;;12.10;;
19810;SDS011;10065;49.632;8.346;2024-01-10T16:09:09;26.47;;;11.80;;
19810;SDS011;10065;49.632;8.346;2024-01-10T16:11:43;36.27;;;12.27;;
19810;SDS011;10065;49.632;8.346;2024-01-10T16:14:10;31.20;;;12.37;;
19810;SDS011;10065;49.632;8.346;2024-01-10T16:16:38;41.90;;;13.70;;
19810;SDS011;10065;49.632;8.346;2024-01-10T16:19:06;26.17;;;13.37;;
19810;SDS011;10065;49.632;8.346;2024-01-10T16:21:34;32.20;;;13.80;;
19810;SDS011;10065;49.632;8.346;2024-01-10T16:24:02;33.93;;;14.30;;
19810;SDS011;10065;49.632;8.346;2024-01-10T16:26:30;36.13;;;14.87;;
19810;SDS011;10065;49.632;8.346;2024-01-10T16:29:00;29.73;;;13.33;;
19810;SDS011;10065;49.632;8.346;2024-01-10T16:31:27;30.60;;;13.23;;
19810;SDS011;10065;49.632;8.346;2024-01-10T16:33:55;32.77;;;14.50;;
19810;SDS011;10065;49.632;8.346;2024-01-10T16:36:23;34.37;;;14.07;;
19810;SDS011;10065;49.632;8.346;2024-01-10T16:38:51;37.90;;;14.80;;
19810;SDS011;10065;49.632;8.346;2024-01-10T16:41:21;29.07;;;13.20;;
19810;SDS011;10065;49.632;8.346;2024-01-10T16:43:49;31.47;;;13.23;;
19810;SDS011;10065;49.632;8.346;2024-01-10T16:46:18;32.77;;;14.07;;
19810;SDS011;10065;49.632;8.346;2024-01-10T16:48:46;31.10;;;13.13;;
19810;SDS011;10065;49.632;8.346;2024-01-10T16:51:14;32.57;;;13.90;;
19810;SDS011;10065;49.632;8.346;2024-01-10T16:53:42;33.77;;;14.07;;
19810;SDS011;10065;49.632;8.346;2024-01-10T16:56:10;32.73;;;13.40;;
19810;SDS011;10065;49.632;8.346;2024-01-10T16:58:38;38.20;;;15.60;;
19810;SDS011;10065;49.632;8.346;2024-01-10T17:01:05;33.73;;;13.57;;
19810;SDS011;10065;49.632;8.346;2024-01-10T17:03:35;32.17;;;14.83;;
19810;SDS011;10065;49.632;8.346;2024-01-10T17:06:03;36.70;;;14.87;;
19810;SDS011;10065;49.632;8.346;2024-01-10T17:08:31;41.90;;;16.30;;
19810;SDS011;10065;49.632;8.346;2024-01-10T17:10:59;36.20;;;14.23;;
19810;SDS011;10065;49.632;8.346;2024-01-10T17:13:29;35.00;;;15.20;;
19810;SDS011;10065;49.632;8.346;2024-01-10T17:15:57;36.27;;;14.60;;
19810;SDS011;10065;49.632;8.346;2024-01-10T17:18:26;34.37;;;13.93;;
19810;SDS011;10065;49.632;8.346;2024-01-10T17:20:56;32.97;;;14.87;;
19810;SDS011;10065;49.632;8.346;2024-01-10T17:23:23;40.67;;;15.37;;
19810;SDS011;10065;49.632;8.346;2024-01-10T17:25:51;33.43;;;13.83;;
19810;SDS011;10065;49.632;8.346;2024-01-10T17:28:21;31.57;;;15.60;;
19810;SDS011;10065;49.632;8.346;2024-01-10T17:30:49;37.40;;;15.73;;
19810;SDS011;10065;49.632;8.346;2024-01-10T17:33:16;38.07;;;16.00;;
19810;SDS011;10065;49.632;8.346;2024-01-10T17:35:47;38.33;;;14.80;;
19810;SDS011;10065;49.632;8.346;2024-01-10T17:38:17;33.77;;;14.93;;
19810;SDS011;10065;49.632;8.346;2024-01-10T17:40:44;32.73;;;15.10;;
19810;SDS011;10065;49.632;8.346;2024-01-10T17:43:14;33.83;;;15.30;;
19810;SDS011;10065;49.632;8.346;2024-01-10T17:45:42;36.00;;;14.73;;
19810;SDS011;10065;49.632;8.346;2024-01-10T17:48:09;34.10;;;15.53;;
19810;SDS011;10065;49.632;8.346;2024-01-10T17:50:40;39.07;;;15.50;;
19810;SDS011;10065;49.632;8.346;2024-01-10T17:53:08;46.27;;;16.23;;
19810;SDS011;10065;49.632;8.346;2024-01-10T17:55:37;35.17;;;15.13;;
19810;SDS011;10065;49.632;8.346;2024-01-10T17:58:05;39.10;;;16.03;;
19810;SDS011;10065;49.632;8.346;2024-01-10T18:00:33;31.43;;;14.20;;
19810;SDS011;10065;49.632;8.346;2024-01-10T18:03:01;40.97;;;15.67;;
19810;SDS011;10065;49.632;8.346;2024-01-10T18:05:29;35.90;;;15.27;;
19810;SDS011;10065;49.632;8.346;2024-01-10T18:07:57;34.77;;;15.00;;
19810;SDS011;10065;49.632;8.346;2024-01-10T18:10:25;35.00;;;14.63;;
19810;SDS011;10065;49.632;8.346;2024-01-10T18:12:54;35.07;;;15.57;;
19810;SDS011;10065;49.632;8.346;2024-01-10T18:15:23;35.50;;;15.73;;
19810;SDS011;10065;49.632;8.346;2024-01-10T18:17:51;36.20;;;15.10;;
19810;SDS011;10065;49.632;8.346;2024-01-10T18:20:19;34.63;;;15.53;;
19810;SDS011;10065;49.632;8.346;2024-01-10T18:22:47;41.73;;;16.90;;
19810;SDS011;10065;49.632;8.346;2024-01-10T18:25:15;38.53;;;15.30;;
19810;SDS011;10065;49.632;8.346;2024-01-10T18:27:42;38.80;;;16.07;;
19810;SDS011;10065;49.632;8.346;2024-01-10T18:30:12;40.83;;;16.63;;
19810;SDS011;10065;49.632;8.346;2024-01-10T18:32:40;39.93;;;16.77;;
19810;SDS011;10065;49.632;8.346;2024-01-10T18:35:08;39.40;;;16.30;;
19810;SDS011;10065;49.632;8.346;2024-01-10T18:37:36;42.03;;;16.57;;
19810;SDS011;10065;49.632;8.346;2024-01-10T18:40:04;39.73;;;16.07;;
19810;SDS011;10065;49.632;8.346;2024-01-10T18:42:33;36.63;;;16.57;;
19810;SDS011;10065;49.632;8.346;2024-01-10T18:45:01;37.03;;;16.93;;
19810;SDS011;10065;49.632;8.346;2024-01-10T18:47:31;38.30;;;17.17;;
19810;SDS011;10065;49.632;8.346;2024-01-10T18:49:59;36.33;;;16.87;;
19810;SDS011;10065;49.632;8.346;2024-01-10T18:52:26;40.37;;;16.97;;
19810;SDS011;10065;49.632;8.346;2024-01-10T18:54:54;35.57;;;17.60;;
19810;SDS011;10065;49.632;8.346;2024-01-10T18:57:22;39.57;;;17.43;;
19810;SDS011;10065;49.632;8.346;2024-01-10T18:59:50;38.23;;;17.33;;
19810;SDS011;10065;49.632;8.346;2024-01-10T19:02:18;49.30;;;17.17;;
19810;SDS011;10065;49.632;8.346;2024-01-10T19:04:47;41.47;;;17.87;;
19810;SDS011;10065;49.632;8.346;2024-01-10T19:07:15;45.30;;;17.80;;
19810;SDS011;10065;49.632;8.346;2024-01-10T19:09:43;44.10;;;18.83;;
19810;SDS011;10065;49.632;8.346;2024-01-10T19:12:10;46.20;;;18.90;;
19810;SDS011;10065;49.632;8.346;2024-01-10T19:14:38;52.70;;;20.20;;
19810;SDS011;10065;49.632;8.346;2024-01-10T19:17:06;57.40;;;21.80;;
19810;SDS011;10065;49.632;8.346;2024-01-10T19:19:34;55.47;;;22.20;;
19810;SDS011;10065;49.632;8.346;2024-01-10T19:22:06;53.17;;;22.33;;
19810;SDS011;10065;49.632;8.346;2024-01-10T19:24:34;52.97;;;20.50;;
19810;SDS011;10065;49.632;8.346;2024-01-10T19:27:02;55.40;;;22.20;;
19810;SDS011;10065;49.632;8.346;2024-01-10T19:29:30;46.30;;;20.67;;
19810;SDS011;10065;49.632;8.346;2024-01-10T19:31:58;42.47;;;18.97;;
19810;SDS011;10065;49.632;8.346;2024-01-10T19:34:26;42.63;;;19.37;;
19810;SDS011;10065;49.632;8.346;2024-01-10T19:36:54;48.77;;;18.73;;
19810;SDS011;10065;49.632;8.346;2024-01-10T19:39:23;47.10;;;19.47;;
19810;SDS011;10065;49.632;8.346;2024-01-10T19:41:50;45.57;;;17.30;;
19810;SDS011;10065;49.632;8.346;2024-01-10T19:44:20;49.93;;;19.57;;
19810;SDS011;10065;49.632;8.346;2024-01-10T19:46:48;53.03;;;20.50;;
19810;SDS011;10065;49.632;8.346;2024-01-10T19:49:16;52.93;;;20.87;;
19810;SDS011;10065;49.632;8.346;2024-01-10T19:51:44;50.53;;;19.23;;
19810;SDS011;10065;49.632;8.346;2024-01-10T19:54:11;54.60;;;20.47;;
19810;SDS011;10065;49.632;8.346;2024-01-10T19:56:41;47.97;;;20.50;;
19810;SDS011;10065;49.632;8.346;2024-01-10T19:59:08;45.77;;;18.87;;
19810;SDS011;10065;49.632;8.346;2024-01-10T20:01:36;44.53;;;19.17;;
19810;SDS011;10065;49.632;8.346;2024-01-10T20:04:04;43.97;;;19.73;;
19810;SDS011;10065;49.632;8.346;2024-01-10T20:06:32;44.80;;;18.00;;
19810;SDS011;10065;49.632;8.346;2024-01-10T20:09:00;49.83;;;20.60;;
19810;SDS011;10065;49.632;8.346;2024-01-10T20:11:29;46.63;;;20.77;;
19810;SDS011;10065;49.632;8.346;2024-01-10T20:13:58;43.13;;;19.00;;
19810;SDS011;10065;49.632;8.346;2024-01-10T20:16:26;45.77;;;19.50;;
19810;SDS011;10065;49.632;8.346;2024-01-10T20:18:54;44.20;;;20.13;;
19810;SDS011;10065;49.632;8.346;2024-01-10T20:21:22;51.80;;;18.70;;
19810;SDS011;10065;49.632;8.346;2024-01-10T20:23:50;42.23;;;19.13;;
19810;SDS011;10065;49.632;8.346;2024-01-10T20:26:18;46.77;;;18.90;;
19810;SDS011;10065;49.632;8.346;2024-01-10T20:28:46;46.10;;;19.87;;
19810;SDS011;10065;49.632;8.346;2024-01-10T20:31:16;44.20;;;18.93;;
19810;SDS011;10065;49.632;8.346;2024-01-10T20:33:44;45.67;;;19.30;;
19810;SDS011;10065;49.632;8.346;2024-01-10T20:36:12;40.77;;;17.83;;
19810;SDS011;10065;49.632;8.346;2024-01-10T20:38:40;46.77;;;18.70;;
19810;SDS011;10065;49.632;8.346;2024-01-10T20:41:09;49.70;;;20.83;;
19810;SDS011;10065;49.632;8.346;2024-01-10T20:43:37;43.87;;;18.77;;
19810;SDS011;10065;49.632;8.346;2024-01-10T20:46:05;42.20;;;18.63;;
19810;SDS011;10065;49.632;8.346;2024-01-10T20:48:34;51.47;;;19.97;;
19810;SDS011;10065;49.632;8.346;2024-01-10T20:51:02;46.83;;;19.27;;
19810;SDS011;10065;49.632;8.346;2024-01-10T20:53:29;50.57;;;20.27;;
19810;SDS011;10065;49.632;8.346;2024-01-10T20:55:57;43.37;;;18.87;;
19810;SDS011;10065;49.632;8.346;2024-01-10T20:58:25;49.80;;;20.70;;
19810;SDS011;10065;49.632;8.346;2024-01-10T21:00:53;40.23;;;17.97;;
19810;SDS011;10065;49.632;8.346;2024-01-10T21:03:21;48.00;;;19.20;;
19810;SDS011;10065;49.632;8.346;2024-01-10T21:05:53;44.47;;;19.50;;
19810;SDS011;10065;49.632;8.346;2024-01-10T21:08:20;49.40;;;18.87;;
19810;SDS011;10065;49.632;8.346;2024-01-10T21:10:48;51.40;;;20.90;;
19810;SDS011;10065;49.632;8.346;2024-01-10T21:13:16;45.50;;;19.77;;
19810;SDS011;10065;49.632;8.346;2024-01-10T21:15:44;47.97;;;19.90;;
19810;SDS011;10065;49.632;8.346;2024-01-10T21:18:12;41.27;;;19.47;;
19810;SDS011;10065;49.632;8.346;2024-01-10T21:20:40;48.63;;;20.33;;
19810;SDS011;10065;49.632;8.346;2024-01-10T21:23:09;41.30;;;18.77;;
19810;SDS011;10065;49.632;8.346;2024-01-10T21:25:37;49.53;;;20.03;;
19810;SDS011;10065;49.632;8.346;2024-01-10T21:28:06;52.00;;;20.23;;
19810;SDS011;10065;49.632;8.346;2024-01-10T21:30:34;48.13;;;18.67;;
19810;SDS011;10065;49.632;8.346;2024-01-10T21:33:02;48.00;;;20.23;;
19810;SDS011;10065;49.632;8.346;2024-01-10T21:35:30;52.97;;;19.67;;
19810;SDS011;10065;49.632;8.346;2024-01-10T21:37:59;48.27;;;19.23;;
19810;SDS011;10065;49.632;8.346;2024-01-10T21:40:28;46.50;;;20.13;;
19810;SDS011;10065;49.632;8.346;2024-01-10T21:42:56;46.50;;;19.47;;
19810;SDS011;10065;49.632;8.346;2024-01-10T21:45:23;46.07;;;19.50;;
19810;SDS011;10065;49.632;8.346;2024-01-10T21:47:51;48.90;;;20.10;;
19810;SDS011;10065;49.632;8.346;2024-01-10T21:50:20;44.50;;;19.63;;
19810;SDS011;10065;49.632;8.346;2024-01-10T21:52:52;45.73;;;21.60;;